Time,TemperatureF,DewpointF,PressureIn,WindDirection,WindDirectionDegrees,WindSpeedMPH,WindSpeedGustMPH,Humidity,HourlyPrecipIn,Conditions,Clouds,dailyrainin,SolarRadiationWatts/m^2,SoftwareType,DateUTC
2013-10-11 00:02:00,33.0,28.0,-100.00,SSE,151,6.0,7.0,83,0.00,,,0.00,1.000000,,2013-10-11 06:02:00,
2013-10-11 00:12:00,33.0,28.0,-100.00,SSE,151,6.0,7.0,83,0.00,,,0.00,1.000000,,2013-10-11 06:12:00,
2013-10-11 00:43:00,33.0,28.0,-100.00,South,174,5.0,9.0,83,0.00,,,0.00,1.000000,,2013-10-11 06:43:00,
2013-10-11 00:52:00,33.0,28.0,-100.00,South,174,5.0,9.0,83,0.00,,,0.00,1.000000,,2013-10-11 06:52:00,
2013-10-11 01:02:00,33.0,28.0,-100.00,South,174,5.0,9.0,83,0.00,,,0.00,1.000000,,2013-10-11 07:02:00,
2013-10-11 01:11:00,33.0,28.0,-100.00,South,174,5.0,9.0,83,0.00,,,0.00,1.000000,,2013-10-11 07:11:00,
2013-10-11 01:42:00,33.0,29.0,-100.00,South,183,5.0,8.0,84,0.00,,,0.00,1.000000,,2013-10-11 07:42:00,
2013-10-11 01:52:00,33.0,29.0,-100.00,South,183,5.0,8.0,84,0.00,,,0.00,1.000000,,2013-10-11 07:52:00,
2013-10-11 02:02:00,33.0,29.0,-100.00,South,183,5.0,8.0,84,0.00,,,0.00,1.000000,,2013-10-11 08:02:00,
2013-10-11 02:11:00,33.0,29.0,-100.00,South,183,5.0,8.0,84,0.00,,,0.00,1.000000,,2013-10-11 08:11:00,
2013-10-11 02:42:00,32.0,28.0,-100.00,South,173,5.0,7.0,86,0.00,,,0.00,1.000000,,2013-10-11 08:42:00,
2013-10-11 02:52:00,32.0,28.0,-100.00,South,173,5.0,7.0,86,0.00,,,0.00,1.000000,,2013-10-11 08:52:00,
2013-10-11 03:01:00,32.0,28.0,-100.00,South,173,5.0,7.0,86,0.00,,,0.00,1.000000,,2013-10-11 09:01:00,
2013-10-11 03:12:00,32.0,28.0,-100.00,South,173,5.0,7.0,86,0.00,,,0.00,1.000000,,2013-10-11 09:12:00,
2013-10-11 03:43:00,32.0,28.0,-100.00,SSE,161,5.0,6.0,86,0.00,,,0.00,1.000000,,2013-10-11 09:43:00,
2013-10-11 03:54:00,32.0,28.0,-100.00,SSE,161,5.0,6.0,86,0.00,,,0.00,1.000000,,2013-10-11 09:54:00,
2013-10-11 04:03:00,32.0,28.0,-100.00,SSE,161,5.0,6.0,86,0.00,,,0.00,1.000000,,2013-10-11 10:03:00,
2013-10-11 04:12:00,32.0,28.0,-100.00,SSE,161,5.0,6.0,86,0.00,,,0.00,1.000000,,2013-10-11 10:12:00,
2013-10-11 04:43:00,32.0,28.0,-100.00,SE,125,4.0,7.0,85,0.00,,,0.00,1.000000,,2013-10-11 10:43:00,
2013-10-11 04:53:00,32.0,28.0,-100.00,SE,125,4.0,7.0,85,0.00,,,0.00,1.000000,,2013-10-11 10:53:00,
2013-10-11 05:02:00,32.0,28.0,-100.00,SE,125,4.0,7.0,85,0.00,,,0.00,1.000000,,2013-10-11 11:02:00,
2013-10-11 05:12:00,32.0,28.0,-100.00,SE,125,4.0,7.0,85,0.00,,,0.00,1.000000,,2013-10-11 11:12:00,
2013-10-11 05:42:00,31.0,27.0,-100.00,SE,124,5.0,8.0,85,0.00,,,-99.99,1.000000,,2013-10-11 11:42:00,
2013-10-11 05:52:00,31.0,27.0,-100.00,SE,124,5.0,8.0,85,0.00,,,-99.99,1.000000,,2013-10-11 11:52:00,
2013-10-11 06:02:00,31.0,27.0,-100.00,SE,124,5.0,8.0,85,0.00,,,-99.99,1.000000,,2013-10-11 12:02:00,
2013-10-11 06:11:00,31.0,27.0,-100.00,SE,124,5.0,8.0,85,0.00,,,-99.99,1.000000,,2013-10-11 12:11:00,
2013-10-11 06:42:00,31.0,28.0,-100.00,SE,126,5.0,7.0,87,0.00,,,-99.99,1.000000,,2013-10-11 12:42:00,
2013-10-11 06:52:00,31.0,28.0,-100.00,SE,126,5.0,7.0,87,0.00,,,-99.99,1.000000,,2013-10-11 12:52:00,
2013-10-11 07:01:00,31.0,28.0,-100.00,SE,126,5.0,7.0,87,0.00,,,-99.99,1.000000,,2013-10-11 13:01:00,
2013-10-11 07:12:00,31.0,28.0,-100.00,SE,126,5.0,7.0,87,0.00,,,-99.99,1.000000,,2013-10-11 13:12:00,
2013-10-11 07:43:00,31.0,27.0,-100.00,ESE,108,4.0,6.0,84,0.00,,,-99.99,1.000000,,2013-10-11 13:43:00,
2013-10-11 07:53:00,31.0,27.0,-100.00,ESE,108,4.0,6.0,84,0.00,,,-99.99,1.000000,,2013-10-11 13:53:00,
2013-10-11 08:02:00,31.0,27.0,-100.00,ESE,108,4.0,6.0,84,0.00,,,-99.99,1.000000,,2013-10-11 14:02:00,
2013-10-11 08:11:00,31.0,27.0,-100.00,ESE,108,4.0,6.0,84,0.00,,,-99.99,1.000000,,2013-10-11 14:11:00,
2013-10-11 08:42:00,34.0,29.0,-100.00,SE,142,4.0,5.0,83,0.00,,,0.00,17.000000,,2013-10-11 14:42:00,
2013-10-11 08:52:00,34.0,29.0,-100.00,SE,142,4.0,5.0,83,0.00,,,0.00,17.000000,,2013-10-11 14:52:00,
2013-10-11 09:02:00,34.0,29.0,-100.00,SE,142,4.0,5.0,83,0.00,,,0.00,17.000000,,2013-10-11 15:02:00,
2013-10-11 09:11:00,34.0,29.0,-100.00,SE,142,4.0,5.0,83,0.00,,,0.00,17.000000,,2013-10-11 15:11:00,
2013-10-11 09:54:00,39.0,31.0,-100.00,South,184,4.0,7.0,74,0.00,,,0.00,203.000000,,2013-10-11 15:54:00,
2013-10-11 10:04:00,39.0,31.0,-100.00,South,184,4.0,7.0,74,0.00,,,0.00,203.000000,,2013-10-11 16:04:00,
2013-10-11 10:13:00,39.0,31.0,-100.00,South,184,4.0,7.0,74,0.00,,,0.00,203.000000,,2013-10-11 16:13:00,
2013-10-11 10:43:00,42.0,30.0,-100.00,WSW,250,5.0,8.0,63,0.00,,,0.00,351.000000,,2013-10-11 16:43:00,
2013-10-11 10:53:00,42.0,30.0,-100.00,WSW,250,5.0,8.0,63,0.00,,,0.00,351.000000,,2013-10-11 16:53:00,
2013-10-11 11:03:00,42.0,30.0,-100.00,WSW,250,5.0,8.0,63,0.00,,,0.00,351.000000,,2013-10-11 17:03:00,
2013-10-11 11:12:00,42.0,30.0,-100.00,WSW,250,5.0,8.0,63,0.00,,,0.00,351.000000,,2013-10-11 17:12:00,
2013-10-11 11:43:00,45.0,31.0,-100.00,West,272,6.0,14.0,57,0.00,,,0.00,657.000000,,2013-10-11 17:43:00,
2013-10-11 11:53:00,45.0,31.0,-100.00,West,272,6.0,14.0,57,0.00,,,0.00,657.000000,,2013-10-11 17:53:00,
2013-10-11 12:02:00,45.0,31.0,-100.00,West,272,6.0,14.0,57,0.00,,,0.00,657.000000,,2013-10-11 18:02:00,
2013-10-11 12:12:00,45.0,31.0,-100.00,West,272,6.0,14.0,57,0.00,,,0.00,657.000000,,2013-10-11 18:12:00,
2013-10-11 12:43:00,47.0,32.0,-100.00,West,280,7.0,14.0,56,0.00,,,0.00,827.000000,,2013-10-11 18:43:00,
2013-10-11 12:53:00,47.0,32.0,-100.00,West,280,7.0,14.0,56,0.00,,,0.00,827.000000,,2013-10-11 18:53:00,
2013-10-11 13:02:00,47.0,32.0,-100.00,West,280,7.0,14.0,56,0.00,,,0.00,827.000000,,2013-10-11 19:02:00,
2013-10-11 13:11:00,47.0,32.0,-100.00,West,280,7.0,14.0,56,0.00,,,0.00,827.000000,,2013-10-11 19:11:00,
2013-10-11 13:43:00,48.0,34.0,-100.00,NW,324,9.0,14.0,57,0.00,,,0.00,758.000000,,2013-10-11 19:43:00,
2013-10-11 13:52:00,48.0,34.0,-100.00,NW,324,9.0,14.0,57,0.00,,,0.00,758.000000,,2013-10-11 19:52:00,
2013-10-11 14:02:00,48.0,34.0,-100.00,NW,324,9.0,14.0,57,0.00,,,0.00,758.000000,,2013-10-11 20:02:00,
2013-10-11 14:12:00,48.0,34.0,-100.00,NW,324,9.0,14.0,57,0.00,,,0.00,758.000000,,2013-10-11 20:12:00,
2013-10-11 14:43:00,47.0,34.0,-100.00,NNW,334,8.0,14.0,61,0.00,,,0.00,500.000000,,2013-10-11 20:43:00,
2013-10-11 14:53:00,47.0,34.0,-100.00,NNW,334,8.0,14.0,61,0.00,,,0.00,500.000000,,2013-10-11 20:53:00,
2013-10-11 15:02:00,47.0,34.0,-100.00,NNW,334,8.0,14.0,61,0.00,,,0.00,500.000000,,2013-10-11 21:02:00,
2013-10-11 15:12:00,47.0,34.0,-100.00,NNW,334,8.0,14.0,61,0.00,,,0.00,500.000000,,2013-10-11 21:12:00,
2013-10-11 15:43:00,47.0,33.0,-100.00,NNW,333,6.0,14.0,57,0.00,,,0.00,610.000000,,2013-10-11 21:43:00,
2013-10-11 15:55:00,47.0,33.0,-100.00,NNW,333,6.0,14.0,57,0.00,,,0.00,610.000000,,2013-10-11 21:55:00,
2013-10-11 16:04:00,47.0,33.0,-100.00,NNW,333,6.0,14.0,57,0.00,,,0.00,610.000000,,2013-10-11 22:04:00,
2013-10-11 16:13:00,47.0,33.0,-100.00,NNW,333,6.0,14.0,57,0.00,,,0.00,610.000000,,2013-10-11 22:13:00,
2013-10-11 16:54:00,50.0,33.0,-100.00,NW,305,6.0,11.0,51,0.00,,,0.00,371.000000,,2013-10-11 22:54:00,
2013-10-11 17:03:00,50.0,33.0,-100.00,NW,305,6.0,11.0,51,0.00,,,0.00,371.000000,,2013-10-11 23:03:00,
2013-10-11 17:12:00,50.0,33.0,-100.00,NW,305,6.0,11.0,51,0.00,,,0.00,371.000000,,2013-10-11 23:12:00,
2013-10-11 17:42:00,51.0,30.0,-100.00,WNW,300,6.0,13.0,45,0.00,,,0.00,493.000000,,2013-10-11 23:42:00,
2013-10-11 17:53:00,51.0,30.0,-100.00,WNW,300,6.0,13.0,45,0.00,,,0.00,493.000000,,2013-10-11 23:53:00,
2013-10-11 18:02:00,51.0,30.0,-100.00,WNW,300,6.0,13.0,45,0.00,,,0.00,493.000000,,2013-10-12 00:02:00,
2013-10-11 18:12:00,51.0,30.0,-100.00,WNW,300,6.0,13.0,45,0.00,,,0.00,493.000000,,2013-10-12 00:12:00,
2013-10-11 18:42:00,51.0,31.0,-100.00,WNW,289,2.0,10.0,47,0.00,,,0.00,247.000000,,2013-10-12 00:42:00,
2013-10-11 18:53:00,51.0,31.0,-100.00,WNW,289,2.0,10.0,47,0.00,,,0.00,247.000000,,2013-10-12 00:53:00,
2013-10-11 19:02:00,51.0,31.0,-100.00,WNW,289,2.0,10.0,47,0.00,,,0.00,247.000000,,2013-10-12 01:02:00,
2013-10-11 19:11:00,51.0,31.0,-100.00,WNW,289,2.0,10.0,47,0.00,,,0.00,247.000000,,2013-10-12 01:11:00,
2013-10-11 19:42:00,44.0,31.0,-100.00,WNW,283,4.0,5.0,60,0.00,,,0.00,26.000000,,2013-10-12 01:42:00,
2013-10-11 19:52:00,44.0,31.0,-100.00,WNW,283,4.0,5.0,60,0.00,,,0.00,26.000000,,2013-10-12 01:52:00,
2013-10-11 20:02:00,44.0,31.0,-100.00,WNW,283,4.0,5.0,60,0.00,,,0.00,26.000000,,2013-10-12 02:02:00,
2013-10-11 20:12:00,44.0,31.0,-100.00,WNW,283,4.0,5.0,60,0.00,,,0.00,26.000000,,2013-10-12 02:12:00,
2013-10-11 20:42:00,43.0,30.0,-100.00,SSW,211,0.0,4.0,59,0.00,,,0.00,1.000000,,2013-10-12 02:42:00,
2013-10-11 20:52:00,43.0,30.0,-100.00,SSW,211,0.0,4.0,59,0.00,,,0.00,1.000000,,2013-10-12 02:52:00,
2013-10-11 21:02:00,43.0,30.0,-100.00,SSW,211,0.0,4.0,59,0.00,,,0.00,1.000000,,2013-10-12 03:02:00,
2013-10-11 21:12:00,43.0,30.0,-100.00,SSW,211,0.0,4.0,59,0.00,,,0.00,1.000000,,2013-10-12 03:12:00,
2013-10-11 21:44:00,44.0,29.0,-100.00,NNW,333,0.0,4.0,55,0.00,,,0.00,1.000000,,2013-10-12 03:44:00,
2013-10-11 21:54:00,44.0,29.0,-100.00,NNW,333,0.0,4.0,55,0.00,,,0.00,1.000000,,2013-10-12 03:54:00,
2013-10-11 22:04:00,44.0,29.0,-100.00,NNW,333,0.0,4.0,55,0.00,,,0.00,1.000000,,2013-10-12 04:04:00,
2013-10-11 22:14:00,44.0,29.0,-100.00,NNW,333,0.0,4.0,55,0.00,,,0.00,1.000000,,2013-10-12 04:14:00,
2013-10-11 22:44:00,44.0,29.0,-100.00,North,7,2.0,4.0,55,0.00,,,0.00,1.000000,,2013-10-12 04:44:00,
2013-10-11 23:13:00,44.0,29.0,-100.00,North,7,2.0,4.0,55,0.00,,,0.00,1.000000,,2013-10-12 05:13:00,
2013-10-11 23:43:00,44.0,29.0,-100.00,East,84,0.0,4.0,56,0.00,,,0.00,1.000000,,2013-10-12 05:43:00,